Página principal
METAR-TAF:

METAR-TAF

Aeroportos :

Ilha de São Vicente, Cabo Verde

Aeroporto de São Pedro

latitude: 16-49-59N, longitude: 25-03-25W, altura: 20 m

Observação actual do tempo

O boletim foi feito há 16 minutos, às 06:00 UTC
Vento 11 kt de nordeste
Temperatura 26°C
Humidade 74%
Pressão 1012 hPa
Visibilidade 10 km ou mais
Nuvens dispersasa uma altura de 1800 ft
Nuvens fragmentadasa uma altura de 2200 ft

METAR: GVSV 120600Z 05011KT 9999 SCT018 BKN022 26/21 Q1012 NOSIG

Hora: 05:16 (06:16 UTC)

Previsão

O boletim foi feito há 1 hora e 16 minutos, às 05:00 UTC
Previsão válida de 12 às 06 UTC a 13 às 12 UTC
Vento 15 kt de es-nordeste
Visibilidade 10 km ou mais
Nuvens dispersasa uma altura de 1800 ft
Probabilidade 30% :
Temporariamente
de 12 às 15 UTC a 12 às 21 UTC
Vento 15 kt de es-nordeste com rajadas de 25 kt
Nuvens fragmentadasa uma altura de 2200 ft

TAF: GVSV 120500Z 1206/1312 06015KT 9999 SCT018 PROB30 TEMPO 1215/1221 06015G25KT BKN022

Observações e previsões do tempo de mais de 4000 aeroportos (mensagens METAR e TAF).

As estações disponíveis são os pontos amarelos e vermelhos sobre o mapa.

Mova o rato sobre o mapa para ver o nome da estação.

Depois clique no ponto para visualizar as observações e previsões meteorológicas.

Para alterar o mapa : clique nos botões verdes com uma cruz preta para aumentar o zoom; no botão verde com uma pitada de zoom; ou nas setas verdes para mapas adjacentes.


METAR-TAF: